sensor_id;sensor_type;location;lat;lon;timestamp;P1;durP1;ratioP1;P2;durP2;ratioP2
31095;SDS011;17749;51.962;8.560;2024-03-25T06:01:28;16.52;;;5.47;;
31095;SDS011;17749;51.962;8.560;2024-03-25T06:03:54;13.88;;;4.90;;
31095;SDS011;17749;51.962;8.560;2024-03-25T06:06:31;11.88;;;4.28;;
31095;SDS011;17749;51.962;8.560;2024-03-25T06:08:58;10.65;;;3.58;;
31095;SDS011;17749;51.962;8.560;2024-03-25T06:11:39;12.60;;;4.32;;
31095;SDS011;17749;51.962;8.560;2024-03-25T06:14:21;11.13;;;4.07;;
31095;SDS011;17749;51.962;8.560;2024-03-25T06:17:04;12.10;;;4.68;;
31095;SDS011;17749;51.962;8.560;2024-03-25T06:19:46;17.73;;;4.10;;
31095;SDS011;17749;51.962;8.560;2024-03-25T06:22:27;21.33;;;5.60;;
31095;SDS011;17749;51.962;8.560;2024-03-25T06:24:53;16.77;;;4.80;;
31095;SDS011;17749;51.962;8.560;2024-03-25T06:27:34;18.13;;;4.93;;
31095;SDS011;17749;51.962;8.560;2024-03-25T06:30:16;14.93;;;5.07;;
31095;SDS011;17749;51.962;8.560;2024-03-25T06:33:00;20.77;;;5.03;;
31095;SDS011;17749;51.962;8.560;2024-03-25T06:36:04;17.23;;;6.22;;
31095;SDS011;17749;51.962;8.560;2024-03-25T06:38:45;19.05;;;5.82;;
31095;SDS011;17749;51.962;8.560;2024-03-25T06:41:28;23.30;;;6.15;;
31095;SDS011;17749;51.962;8.560;2024-03-25T06:44:09;15.85;;;5.82;;
31095;SDS011;17749;51.962;8.560;2024-03-25T06:46:43;21.40;;;6.93;;
31095;SDS011;17749;51.962;8.560;2024-03-25T06:49:24;23.77;;;7.95;;
31095;SDS011;17749;51.962;8.560;2024-03-25T06:52:05;16.35;;;5.43;;
31095;SDS011;17749;51.962;8.560;2024-03-25T06:54:46;23.08;;;5.90;;
31095;SDS011;17749;51.962;8.560;2024-03-25T06:57:12;16.13;;;5.78;;
31095;SDS011;17749;51.962;8.560;2024-03-25T06:59:54;21.60;;;7.28;;
31095;SDS011;17749;51.962;8.560;2024-03-25T07:02:34;23.35;;;5.25;;
31095;SDS011;17749;51.962;8.560;2024-03-25T07:05:15;14.43;;;6.50;;
31095;SDS011;17749;51.962;8.560;2024-03-25T07:07:58;21.33;;;5.93;;
31095;SDS011;17749;51.962;8.560;2024-03-25T07:10:43;19.00;;;6.93;;
31095;SDS011;17749;51.962;8.560;2024-03-25T07:13:25;19.10;;;5.93;;
31095;SDS011;17749;51.962;8.560;2024-03-25T07:15:51;13.52;;;5.57;;
31095;SDS011;17749;51.962;8.560;2024-03-25T07:18:17;22.98;;;5.45;;
31095;SDS011;17749;51.962;8.560;2024-03-25T07:20:43;14.63;;;5.40;;
31095;SDS011;17749;51.962;8.560;2024-03-25T07:23:10;19.00;;;6.75;;
31095;SDS011;17749;51.962;8.560;2024-03-25T07:25:36;27.50;;;7.20;;
31095;SDS011;17749;51.962;8.560;2024-03-25T07:28:03;19.33;;;6.47;;
31095;SDS011;17749;51.962;8.560;2024-03-25T07:30:30;16.20;;;5.70;;
31095;SDS011;17749;51.962;8.560;2024-03-25T07:33:12;18.60;;;7.13;;
31095;SDS011;17749;51.962;8.560;2024-03-25T07:35:55;26.85;;;8.38;;
31095;SDS011;17749;51.962;8.560;2024-03-25T07:38:36;15.80;;;5.38;;
31095;SDS011;17749;51.962;8.560;2024-03-25T07:41:18;16.90;;;5.47;;
31095;SDS011;17749;51.962;8.560;2024-03-25T07:43:59;28.30;;;7.32;;
31095;SDS011;17749;51.962;8.560;2024-03-25T07:46:41;26.55;;;5.80;;
31095;SDS011;17749;51.962;8.560;2024-03-25T07:49:22;18.25;;;7.47;;
31095;SDS011;17749;51.962;8.560;2024-03-25T07:52:03;14.75;;;5.47;;
31095;SDS011;17749;51.962;8.560;2024-03-25T07:54:45;13.43;;;4.97;;
31095;SDS011;17749;51.962;8.560;2024-03-25T07:57:28;34.10;;;7.60;;
31095;SDS011;17749;51.962;8.560;2024-03-25T07:59:54;13.27;;;5.10;;
31095;SDS011;17749;51.962;8.560;2024-03-25T08:02:20;14.95;;;4.70;;
31095;SDS011;17749;51.962;8.560;2024-03-25T08:04:49;14.43;;;4.13;;
31095;SDS011;17749;51.962;8.560;2024-03-25T08:07:15;14.52;;;5.18;;
31095;SDS011;17749;51.962;8.560;2024-03-25T08:09:56;22.02;;;6.28;;
31095;SDS011;17749;51.962;8.560;2024-03-25T08:12:22;26.13;;;7.18;;
31095;SDS011;17749;51.962;8.560;2024-03-25T08:14:49;15.18;;;4.93;;
31095;SDS011;17749;51.962;8.560;2024-03-25T08:17:33;18.83;;;6.43;;
31095;SDS011;17749;51.962;8.560;2024-03-25T08:19:59;22.02;;;6.53;;
31095;SDS011;17749;51.962;8.560;2024-03-25T08:22:40;17.70;;;5.88;;
31095;SDS011;17749;51.962;8.560;2024-03-25T08:25:06;17.20;;;6.60;;
31095;SDS011;17749;51.962;8.560;2024-03-25T08:27:33;23.98;;;6.95;;
31095;SDS011;17749;51.962;8.560;2024-03-25T08:29:59;23.63;;;7.13;;
31095;SDS011;17749;51.962;8.560;2024-03-25T08:32:41;22.92;;;7.80;;
31095;SDS011;17749;51.962;8.560;2024-03-25T08:35:22;23.00;;;9.05;;
31095;SDS011;17749;51.962;8.560;2024-03-25T08:38:03;29.58;;;9.57;;
31095;SDS011;17749;51.962;8.560;2024-03-25T08:40:29;25.67;;;8.05;;
31095;SDS011;17749;51.962;8.560;2024-03-25T08:43:12;23.50;;;8.88;;
31095;SDS011;17749;51.962;8.560;2024-03-25T08:45:38;23.80;;;7.28;;
31095;SDS011;17749;51.962;8.560;2024-03-25T08:48:05;20.70;;;8.40;;
31095;SDS011;17749;51.962;8.560;2024-03-25T08:50:50;26.20;;;7.40;;
31095;SDS011;17749;51.962;8.560;2024-03-25T08:53:32;29.05;;;8.30;;
31095;SDS011;17749;51.962;8.560;2024-03-25T08:56:14;27.15;;;7.45;;
31095;SDS011;17749;51.962;8.560;2024-03-25T08:58:46;21.13;;;6.90;;
31095;SDS011;17749;51.962;8.560;2024-03-25T09:01:12;18.20;;;7.65;;
31095;SDS011;17749;51.962;8.560;2024-03-25T09:03:56;26.50;;;9.13;;
31095;SDS011;17749;51.962;8.560;2024-03-25T09:06:37;23.65;;;8.23;;
31095;SDS011;17749;51.962;8.560;2024-03-25T09:09:18;24.13;;;7.38;;
31095;SDS011;17749;51.962;8.560;2024-03-25T09:12:05;28.23;;;6.13;;
31095;SDS011;17749;51.962;8.560;2024-03-25T09:14:32;19.77;;;5.57;;
31095;SDS011;17749;51.962;8.560;2024-03-25T09:17:14;17.73;;;5.25;;
31095;SDS011;17749;51.962;8.560;2024-03-25T09:19:57;10.75;;;5.28;;
31095;SDS011;17749;51.962;8.560;2024-03-25T09:22:26;20.55;;;5.43;;
31095;SDS011;17749;51.962;8.560;2024-03-25T09:24:52;14.45;;;4.45;;
31095;SDS011;17749;51.962;8.560;2024-03-25T09:27:33;13.82;;;4.85;;
31095;SDS011;17749;51.962;8.560;2024-03-25T09:30:14;15.80;;;5.45;;
31095;SDS011;17749;51.962;8.560;2024-03-25T09:32:42;15.57;;;5.53;;
31095;SDS011;17749;51.962;8.560;2024-03-25T09:35:25;17.17;;;6.07;;
31095;SDS011;17749;51.962;8.560;2024-03-25T09:38:06;13.70;;;4.75;;
31095;SDS011;17749;51.962;8.560;2024-03-25T09:41:00;12.10;;;4.80;;
31095;SDS011;17749;51.962;8.560;2024-03-25T09:43:48;16.85;;;4.85;;
31095;SDS011;17749;51.962;8.560;2024-03-25T09:46:37;18.30;;;4.93;;
31095;SDS011;17749;51.962;8.560;2024-03-25T09:49:20;18.13;;;5.82;;
31095;SDS011;17749;51.962;8.560;2024-03-25T09:52:04;13.13;;;4.68;;
31095;SDS011;17749;51.962;8.560;2024-03-25T09:54:45;14.35;;;3.95;;
31095;SDS011;17749;51.962;8.560;2024-03-25T09:57:11;11.88;;;2.55;;
31095;SDS011;17749;51.962;8.560;2024-03-25T09:59:53;8.63;;;2.38;;
31095;SDS011;17749;51.962;8.560;2024-03-25T10:02:43;3.05;;;1.80;;
31095;SDS011;17749;51.962;8.560;2024-03-25T10:05:26;5.78;;;2.28;;
31095;SDS011;17749;51.962;8.560;2024-03-25T10:08:08;7.55;;;2.42;;
31095;SDS011;17749;51.962;8.560;2024-03-25T10:10:49;8.40;;;2.28;;
31095;SDS011;17749;51.962;8.560;2024-03-25T10:13:18;7.93;;;2.30;;
31095;SDS011;17749;51.962;8.560;2024-03-25T10:15:48;6.15;;;2.33;;
31095;SDS011;17749;51.962;8.560;2024-03-25T10:18:24;7.93;;;2.92;;
31095;SDS011;17749;51.962;8.560;2024-03-25T10:20:50;7.28;;;2.53;;
31095;SDS011;17749;51.962;8.560;2024-03-25T10:23:20;13.00;;;4.82;;
31095;SDS011;17749;51.962;8.560;2024-03-25T10:25:48;14.32;;;2.90;;
31095;SDS011;17749;51.962;8.560;2024-03-25T10:28:15;8.50;;;2.58;;
31095;SDS011;17749;51.962;8.560;2024-03-25T10:31:04;12.23;;;2.88;;
31095;SDS011;17749;51.962;8.560;2024-03-25T10:33:35;12.45;;;4.25;;
31095;SDS011;17749;51.962;8.560;2024-03-25T10:36:08;7.97;;;3.67;;
31095;SDS011;17749;51.962;8.560;2024-03-25T10:38:35;8.32;;;2.50;;
31095;SDS011;17749;51.962;8.560;2024-03-25T10:41:17;13.25;;;3.40;;
31095;SDS011;17749;51.962;8.560;2024-03-25T10:43:59;9.95;;;3.65;;
31095;SDS011;17749;51.962;8.560;2024-03-25T10:46:33;6.85;;;3.45;;
31095;SDS011;17749;51.962;8.560;2024-03-25T10:49:05;15.18;;;3.08;;
31095;SDS011;17749;51.962;8.560;2024-03-25T10:51:43;15.88;;;5.32;;
31095;SDS011;17749;51.962;8.560;2024-03-25T10:54:11;8.40;;;3.08;;
31095;SDS011;17749;51.962;8.560;2024-03-25T10:56:38;7.53;;;3.03;;
31095;SDS011;17749;51.962;8.560;2024-03-25T10:59:10;12.20;;;2.92;;
31095;SDS011;17749;51.962;8.560;2024-03-25T11:01:42;8.10;;;3.10;;
31095;SDS011;17749;51.962;8.560;2024-03-25T11:04:21;22.30;;;2.67;;
31095;SDS011;17749;51.962;8.560;2024-03-25T11:06:51;10.40;;;2.50;;
31095;SDS011;17749;51.962;8.560;2024-03-25T11:09:24;10.13;;;2.70;;
31095;SDS011;17749;51.962;8.560;2024-03-25T11:12:09;6.70;;;2.53;;
31095;SDS011;17749;51.962;8.560;2024-03-25T11:14:56;9.60;;;3.42;;
31095;SDS011;17749;51.962;8.560;2024-03-25T11:17:24;10.90;;;2.75;;
31095;SDS011;17749;51.962;8.560;2024-03-25T11:19:49;7.38;;;2.60;;
31095;SDS011;17749;51.962;8.560;2024-03-25T11:22:16;9.57;;;2.13;;
31095;SDS011;17749;51.962;8.560;2024-03-25T11:24:51;6.00;;;2.88;;
31095;SDS011;17749;51.962;8.560;2024-03-25T11:27:21;7.57;;;2.05;;
31095;SDS011;17749;51.962;8.560;2024-03-25T11:29:48;12.55;;;2.42;;
31095;SDS011;17749;51.962;8.560;2024-03-25T11:32:15;7.93;;;2.08;;
31095;SDS011;17749;51.962;8.560;2024-03-25T11:34:56;10.02;;;2.58;;
31095;SDS011;17749;51.962;8.560;2024-03-25T11:37:22;6.72;;;2.10;;
31095;SDS011;17749;51.962;8.560;2024-03-25T11:42:50;7.68;;;2.15;;
31095;SDS011;17749;51.962;8.560;2024-03-25T11:45:32;5.82;;;2.75;;
31095;SDS011;17749;51.962;8.560;2024-03-25T11:48:15;9.48;;;2.50;;
31095;SDS011;17749;51.962;8.560;2024-03-25T11:51:05;13.60;;;2.33;;
31095;SDS011;17749;51.962;8.560;2024-03-25T11:53:54;8.63;;;2.17;;
31095;SDS011;17749;51.962;8.560;2024-03-25T11:56:40;8.85;;;1.83;;
31095;SDS011;17749;51.962;8.560;2024-03-25T11:59:07;6.35;;;2.20;;
31095;SDS011;17749;51.962;8.560;2024-03-25T12:01:33;8.80;;;2.78;;
31095;SDS011;17749;51.962;8.560;2024-03-25T12:04:10;4.10;;;1.80;;
31095;SDS011;17749;51.962;8.560;2024-03-25T12:06:38;8.48;;;1.75;;
31095;SDS011;17749;51.962;8.560;2024-03-25T12:09:04;5.70;;;3.22;;
31095;SDS011;17749;51.962;8.560;2024-03-25T12:11:48;6.00;;;1.80;;
31095;SDS011;17749;51.962;8.560;2024-03-25T12:14:15;12.05;;;3.08;;
31095;SDS011;17749;51.962;8.560;2024-03-25T12:16:46;10.00;;;1.95;;
31095;SDS011;17749;51.962;8.560;2024-03-25T12:19:16;12.90;;;3.38;;
31095;SDS011;17749;51.962;8.560;2024-03-25T12:21:46;7.32;;;1.90;;
31095;SDS011;17749;51.962;8.560;2024-03-25T12:24:14;8.02;;;3.13;;
31095;SDS011;17749;51.962;8.560;2024-03-25T12:26:42;7.97;;;2.42;;
31095;SDS011;17749;51.962;8.560;2024-03-25T12:29:08;6.45;;;1.85;;
31095;SDS011;17749;51.962;8.560;2024-03-25T12:31:38;4.88;;;1.80;;
31095;SDS011;17749;51.962;8.560;2024-03-25T12:34:09;7.30;;;1.85;;
31095;SDS011;17749;51.962;8.560;2024-03-25T12:36:39;8.85;;;2.20;;
31095;SDS011;17749;51.962;8.560;2024-03-25T12:39:14;4.93;;;1.45;;
31095;SDS011;17749;51.962;8.560;2024-03-25T12:41:42;6.50;;;1.90;;
31095;SDS011;17749;51.962;8.560;2024-03-25T12:44:08;13.13;;;2.00;;
31095;SDS011;17749;51.962;8.560;2024-03-25T12:46:35;3.92;;;1.50;;
31095;SDS011;17749;51.962;8.560;2024-03-25T12:49:03;6.65;;;1.67;;
31095;SDS011;17749;51.962;8.560;2024-03-25T12:51:29;4.85;;;2.08;;
31095;SDS011;17749;51.962;8.560;2024-03-25T12:54:14;8.32;;;2.58;;
31095;SDS011;17749;51.962;8.560;2024-03-25T12:56:41;5.60;;;2.00;;
31095;SDS011;17749;51.962;8.560;2024-03-25T12:59:08;8.63;;;2.20;;
31095;SDS011;17749;51.962;8.560;2024-03-25T13:01:34;5.82;;;2.05;;
31095;SDS011;17749;51.962;8.560;2024-03-25T13:04:01;4.80;;;1.70;;
31095;SDS011;17749;51.962;8.560;2024-03-25T13:06:30;6.50;;;1.70;;
31095;SDS011;17749;51.962;8.560;2024-03-25T13:08:57;7.30;;;1.73;;
31095;SDS011;17749;51.962;8.560;2024-03-25T13:11:23;7.30;;;1.55;;
31095;SDS011;17749;51.962;8.560;2024-03-25T13:13:53;7.28;;;2.17;;
31095;SDS011;17749;51.962;8.560;2024-03-25T13:16:20;5.97;;;1.63;;
31095;SDS011;17749;51.962;8.560;2024-03-25T13:18:46;5.13;;;1.80;;
31095;SDS011;17749;51.962;8.560;2024-03-25T13:21:15;6.38;;;1.83;;
31095;SDS011;17749;51.962;8.560;2024-03-25T13:23:42;6.63;;;2.15;;
31095;SDS011;17749;51.962;8.560;2024-03-25T13:26:08;5.53;;;1.80;;
31095;SDS011;17749;51.962;8.560;2024-03-25T13:28:43;8.85;;;2.03;;
31095;SDS011;17749;51.962;8.560;2024-03-25T13:31:14;7.40;;;1.83;;
31095;SDS011;17749;51.962;8.560;2024-03-25T13:33:42;5.30;;;2.22;;
31095;SDS011;17749;51.962;8.560;2024-03-25T13:36:08;5.93;;;1.90;;
31095;SDS011;17749;51.962;8.560;2024-03-25T13:38:34;7.03;;;1.85;;
31095;SDS011;17749;51.962;8.560;2024-03-25T13:41:01;6.25;;;1.70;;
31095;SDS011;17749;51.962;8.560;2024-03-25T13:43:28;5.65;;;2.45;;
31095;SDS011;17749;51.962;8.560;2024-03-25T13:45:55;7.65;;;2.58;;
31095;SDS011;17749;51.962;8.560;2024-03-25T13:48:25;8.43;;;2.20;;
31095;SDS011;17749;51.962;8.560;2024-03-25T13:50:53;6.60;;;2.42;;
31095;SDS011;17749;51.962;8.560;2024-03-25T13:53:20;6.35;;;1.50;;
31095;SDS011;17749;51.962;8.560;2024-03-25T13:55:50;9.70;;;1.88;;
31095;SDS011;17749;51.962;8.560;2024-03-25T13:58:16;6.05;;;1.80;;
31095;SDS011;17749;51.962;8.560;2024-03-25T14:00:42;4.65;;;1.45;;
31095;SDS011;17749;51.962;8.560;2024-03-25T14:03:09;8.23;;;2.00;;
31095;SDS011;17749;51.962;8.560;2024-03-25T14:05:35;5.50;;;1.65;;
31095;SDS011;17749;51.962;8.560;2024-03-25T14:08:02;6.45;;;2.33;;
31095;SDS011;17749;51.962;8.560;2024-03-25T14:10:29;9.48;;;2.33;;
31095;SDS011;17749;51.962;8.560;2024-03-25T14:12:57;13.20;;;2.70;;
31095;SDS011;17749;51.962;8.560;2024-03-25T14:15:28;7.75;;;2.13;;
31095;SDS011;17749;51.962;8.560;2024-03-25T14:21:54;7.65;;;1.88;;
31095;SDS011;17749;51.962;8.560;2024-03-25T14:25:15;7.15;;;1.52;;
31095;SDS011;17749;51.962;8.560;2024-03-25T14:28:26;5.65;;;1.35;;
31095;SDS011;17749;51.962;8.560;2024-03-25T14:31:16;7.10;;;1.70;;
31095;SDS011;17749;51.962;8.560;2024-03-25T14:34:08;7.05;;;2.65;;
31095;SDS011;17749;51.962;8.560;2024-03-25T14:36:56;8.18;;;1.42;;
31095;SDS011;17749;51.962;8.560;2024-03-25T14:40:15;6.80;;;1.77;;
31095;SDS011;17749;51.962;8.560;2024-03-25T14:43:48;8.75;;;1.85;;
31095;SDS011;17749;51.962;8.560;2024-03-25T14:46:33;7.30;;;1.42;;
31095;SDS011;17749;51.962;8.560;2024-03-25T14:49:55;4.03;;;1.42;;
31095;SDS011;17749;51.962;8.560;2024-03-25T14:53:09;4.15;;;1.52;;
31095;SDS011;17749;51.962;8.560;2024-03-25T14:56:15;5.88;;;1.60;;
31095;SDS011;17749;51.962;8.560;2024-03-25T14:58:42;5.40;;;2.70;;
31095;SDS011;17749;51.962;8.560;2024-03-25T15:01:16;5.13;;;2.00;;
31095;SDS011;17749;51.962;8.560;2024-03-25T15:03:42;4.30;;;1.80;;
31095;SDS011;17749;51.962;8.560;2024-03-25T15:06:10;9.98;;;4.32;;
31095;SDS011;17749;51.962;8.560;2024-03-25T15:08:36;9.43;;;3.03;;
31095;SDS011;17749;51.962;8.560;2024-03-25T15:11:02;5.70;;;1.65;;
31095;SDS011;17749;51.962;8.560;2024-03-25T15:13:30;9.88;;;2.42;;
31095;SDS011;17749;51.962;8.560;2024-03-25T15:15:56;7.55;;;1.70;;
31095;SDS011;17749;51.962;8.560;2024-03-25T15:18:23;5.45;;;2.40;;
31095;SDS011;17749;51.962;8.560;2024-03-25T15:21:02;7.30;;;2.53;;
31095;SDS011;17749;51.962;8.560;2024-03-25T15:25:56;3.08;;;1.35;;
31095;SDS011;17749;51.962;8.560;2024-03-25T15:28:24;3.92;;;1.17;;
31095;SDS011;17749;51.962;8.560;2024-03-25T15:30:50;12.60;;;2.25;;
31095;SDS011;17749;51.962;8.560;2024-03-25T15:33:17;5.45;;;1.48;;
31095;SDS011;17749;51.962;8.560;2024-03-25T15:35:43;3.92;;;1.40;;
31095;SDS011;17749;51.962;8.560;2024-03-25T15:38:10;3.53;;;1.33;;
31095;SDS011;17749;51.962;8.560;2024-03-25T15:40:37;6.07;;;1.38;;
31095;SDS011;17749;51.962;8.560;2024-03-25T15:43:03;22.55;;;3.13;;
31095;SDS011;17749;51.962;8.560;2024-03-25T15:45:29;6.22;;;1.85;;
31095;SDS011;17749;51.962;8.560;2024-03-25T15:47:56;6.40;;;1.85;;
31095;SDS011;17749;51.962;8.560;2024-03-25T15:50:22;10.52;;;1.98;;
31095;SDS011;17749;51.962;8.560;2024-03-25T15:52:49;6.63;;;2.00;;
31095;SDS011;17749;51.962;8.560;2024-03-25T15:55:15;9.52;;;3.13;;
31095;SDS011;17749;51.962;8.560;2024-03-25T15:57:42;7.93;;;2.33;;
31095;SDS011;17749;51.962;8.560;2024-03-25T16:00:08;3.47;;;1.35;;
31095;SDS011;17749;51.962;8.560;2024-03-25T16:02:36;7.00;;;1.58;;
31095;SDS011;17749;51.962;8.560;2024-03-25T16:05:03;11.30;;;2.95;;
31095;SDS011;17749;51.962;8.560;2024-03-25T16:07:29;1.75;;;0.88;;
31095;SDS011;17749;51.962;8.560;2024-03-25T16:09:56;7.15;;;1.77;;
31095;SDS011;17749;51.962;8.560;2024-03-25T16:12:23;7.30;;;1.60;;
31095;SDS011;17749;51.962;8.560;2024-03-25T16:14:50;4.18;;;1.50;;
31095;SDS011;17749;51.962;8.560;2024-03-25T16:17:16;7.57;;;1.75;;
31095;SDS011;17749;51.962;8.560;2024-03-25T16:19:42;5.63;;;1.98;;
31095;SDS011;17749;51.962;8.560;2024-03-25T16:22:08;8.05;;;1.60;;
31095;SDS011;17749;51.962;8.560;2024-03-25T16:24:34;4.85;;;1.63;;
31095;SDS011;17749;51.962;8.560;2024-03-25T16:27:02;6.18;;;3.25;;
31095;SDS011;17749;51.962;8.560;2024-03-25T16:29:28;12.23;;;5.30;;
31095;SDS011;17749;51.962;8.560;2024-03-25T16:31:55;2.78;;;1.63;;
31095;SDS011;17749;51.962;8.560;2024-03-25T16:34:21;5.25;;;1.40;;
31095;SDS011;17749;51.962;8.560;2024-03-25T16:36:48;7.50;;;4.07;;
31095;SDS011;17749;51.962;8.560;2024-03-25T16:39:14;8.15;;;1.30;;
31095;SDS011;17749;51.962;8.560;2024-03-25T16:41:40;9.85;;;5.93;;
31095;SDS011;17749;51.962;8.560;2024-03-25T16:44:07;6.18;;;1.90;;
31095;SDS011;17749;51.962;8.560;2024-03-25T16:46:33;6.35;;;3.10;;
31095;SDS011;17749;51.962;8.560;2024-03-25T16:49:00;6.03;;;1.70;;
31095;SDS011;17749;51.962;8.560;2024-03-25T16:51:26;6.15;;;2.10;;
31095;SDS011;17749;51.962;8.560;2024-03-25T16:53:52;5.00;;;2.20;;
31095;SDS011;17749;51.962;8.560;2024-03-25T16:56:19;6.18;;;1.63;;
31095;SDS011;17749;51.962;8.560;2024-03-25T16:58:45;7.70;;;1.83;;
31095;SDS011;17749;51.962;8.560;2024-03-25T17:01:11;3.60;;;1.35;;
31095;SDS011;17749;51.962;8.560;2024-03-25T17:03:38;3.35;;;1.40;;
31095;SDS011;17749;51.962;8.560;2024-03-25T17:06:04;11.38;;;2.28;;
31095;SDS011;17749;51.962;8.560;2024-03-25T17:08:31;7.15;;;1.77;;
31095;SDS011;17749;51.962;8.560;2024-03-25T17:10:59;10.20;;;2.50;;
31095;SDS011;17749;51.962;8.560;2024-03-25T17:13:26;9.60;;;1.92;;
31095;SDS011;17749;51.962;8.560;2024-03-25T17:15:53;4.10;;;1.75;;
31095;SDS011;17749;51.962;8.560;2024-03-25T17:18:19;3.53;;;1.23;;
31095;SDS011;17749;51.962;8.560;2024-03-25T17:20:50;5.75;;;2.05;;
31095;SDS011;17749;51.962;8.560;2024-03-25T17:23:24;2.60;;;1.50;;
31095;SDS011;17749;51.962;8.560;2024-03-25T17:25:51;5.32;;;1.90;;
31095;SDS011;17749;51.962;8.560;2024-03-25T17:28:17;5.63;;;1.85;;
31095;SDS011;17749;51.962;8.560;2024-03-25T17:30:43;4.63;;;1.75;;
31095;SDS011;17749;51.962;8.560;2024-03-25T17:33:10;6.22;;;1.70;;
31095;SDS011;17749;51.962;8.560;2024-03-25T17:35:36;3.88;;;1.95;;
31095;SDS011;17749;51.962;8.560;2024-03-25T17:38:03;6.38;;;2.58;;
31095;SDS011;17749;51.962;8.560;2024-03-25T17:40:30;5.20;;;1.95;;
31095;SDS011;17749;51.962;8.560;2024-03-25T17:42:57;5.53;;;1.90;;
31095;SDS011;17749;51.962;8.560;2024-03-25T17:45:23;8.18;;;2.22;;
31095;SDS011;17749;51.962;8.560;2024-03-25T17:47:55;5.55;;;3.08;;
31095;SDS011;17749;51.962;8.560;2024-03-25T17:50:21;11.57;;;4.90;;
31095;SDS011;17749;51.962;8.560;2024-03-25T17:52:48;34.03;;;20.05;;
31095;SDS011;17749;51.962;8.560;2024-03-25T17:55:18;20.67;;;13.30;;
31095;SDS011;17749;51.962;8.560;2024-03-25T17:57:50;34.53;;;16.38;;
31095;SDS011;17749;51.962;8.560;2024-03-25T18:00:18;27.30;;;15.85;;
31095;SDS011;17749;51.962;8.560;2024-03-25T18:02:45;11.05;;;5.95;;
31095;SDS011;17749;51.962;8.560;2024-03-25T18:05:13;6.95;;;3.90;;
31095;SDS011;17749;51.962;8.560;2024-03-25T18:07:39;6.40;;;3.13;;
31095;SDS011;17749;51.962;8.560;2024-03-25T18:10:08;6.45;;;3.08;;
31095;SDS011;17749;51.962;8.560;2024-03-25T18:12:35;8.00;;;3.67;;
31095;SDS011;17749;51.962;8.560;2024-03-25T18:15:01;9.18;;;2.67;;
31095;SDS011;17749;51.962;8.560;2024-03-25T18:17:27;4.57;;;2.53;;
31095;SDS011;17749;51.962;8.560;2024-03-25T18:19:53;9.50;;;3.38;;
31095;SDS011;17749;51.962;8.560;2024-03-25T18:22:19;4.30;;;2.38;;
31095;SDS011;17749;51.962;8.560;2024-03-25T18:24:46;6.53;;;2.38;;
31095;SDS011;17749;51.962;8.560;2024-03-25T18:27:13;7.43;;;2.92;;
31095;SDS011;17749;51.962;8.560;2024-03-25T18:29:40;6.88;;;3.50;;
31095;SDS011;17749;51.962;8.560;2024-03-25T18:32:06;6.47;;;3.00;;
31095;SDS011;17749;51.962;8.560;2024-03-25T18:34:32;6.38;;;3.53;;
31095;SDS011;17749;51.962;8.560;2024-03-25T18:36:58;4.93;;;2.55;;
31095;SDS011;17749;51.962;8.560;2024-03-25T18:39:24;8.15;;;2.90;;
31095;SDS011;17749;51.962;8.560;2024-03-25T18:41:50;6.72;;;3.60;;
31095;SDS011;17749;51.962;8.560;2024-03-25T18:44:17;8.05;;;3.10;;
31095;SDS011;17749;51.962;8.560;2024-03-25T18:46:43;5.35;;;2.85;;
31095;SDS011;17749;51.962;8.560;2024-03-25T18:49:10;5.63;;;3.15;;
31095;SDS011;17749;51.962;8.560;2024-03-25T18:51:36;9.32;;;4.03;;
31095;SDS011;17749;51.962;8.560;2024-03-25T18:54:02;13.63;;;4.15;;
31095;SDS011;17749;51.962;8.560;2024-03-25T18:56:28;7.28;;;3.92;;
31095;SDS011;17749;51.962;8.560;2024-03-25T18:58:54;7.90;;;3.75;;
31095;SDS011;17749;51.962;8.560;2024-03-25T19:01:21;12.57;;;3.88;;
31095;SDS011;17749;51.962;8.560;2024-03-25T19:03:47;10.18;;;4.43;;
31095;SDS011;17749;51.962;8.560;2024-03-25T19:06:13;18.20;;;8.20;;
31095;SDS011;17749;51.962;8.560;2024-03-25T19:08:40;25.63;;;12.23;;
31095;SDS011;17749;51.962;8.560;2024-03-25T19:11:06;24.05;;;11.73;;
31095;SDS011;17749;51.962;8.560;2024-03-25T19:13:32;33.53;;;11.43;;
31095;SDS011;17749;51.962;8.560;2024-03-25T19:15:59;31.55;;;11.88;;
31095;SDS011;17749;51.962;8.560;2024-03-25T19:18:25;31.75;;;13.55;;
31095;SDS011;17749;51.962;8.560;2024-03-25T19:20:51;23.50;;;10.32;;
31095;SDS011;17749;51.962;8.560;2024-03-25T19:23:17;17.88;;;7.72;;
31095;SDS011;17749;51.962;8.560;2024-03-25T19:25:44;17.85;;;6.50;;
31095;SDS011;17749;51.962;8.560;2024-03-25T19:28:10;15.88;;;6.20;;
31095;SDS011;17749;51.962;8.560;2024-03-25T19:30:36;17.17;;;6.97;;
31095;SDS011;17749;51.962;8.560;2024-03-25T19:33:02;15.18;;;6.03;;
31095;SDS011;17749;51.962;8.560;2024-03-25T19:35:28;12.35;;;4.78;;
31095;SDS011;17749;51.962;8.560;2024-03-25T19:37:55;13.23;;;5.85;;
31095;SDS011;17749;51.962;8.560;2024-03-25T19:40:21;10.95;;;4.15;;
31095;SDS011;17749;51.962;8.560;2024-03-25T19:42:47;8.45;;;3.55;;
31095;SDS011;17749;51.962;8.560;2024-03-25T19:45:13;12.95;;;4.05;;
31095;SDS011;17749;51.962;8.560;2024-03-25T19:47:39;11.55;;;3.50;;
31095;SDS011;17749;51.962;8.560;2024-03-25T19:50:07;9.77;;;3.47;;
31095;SDS011;17749;51.962;8.560;2024-03-25T19:52:33;9.55;;;4.10;;
31095;SDS011;17749;51.962;8.560;2024-03-25T19:55:00;10.65;;;4.68;;
31095;SDS011;17749;51.962;8.560;2024-03-25T19:57:26;9.93;;;3.55;;
31095;SDS011;17749;51.962;8.560;2024-03-25T19:59:52;7.88;;;3.47;;
31095;SDS011;17749;51.962;8.560;2024-03-25T20:02:19;10.02;;;3.22;;
31095;SDS011;17749;51.962;8.560;2024-03-25T20:04:45;11.25;;;3.40;;
31095;SDS011;17749;51.962;8.560;2024-03-25T20:07:13;12.70;;;3.30;;
31095;SDS011;17749;51.962;8.560;2024-03-25T20:09:39;5.63;;;2.65;;
31095;SDS011;17749;51.962;8.560;2024-03-25T20:12:06;11.88;;;2.70;;
31095;SDS011;17749;51.962;8.560;2024-03-25T20:14:32;4.30;;;2.10;;
31095;SDS011;17749;51.962;8.560;2024-03-25T20:16:58;5.03;;;2.95;;
31095;SDS011;17749;51.962;8.560;2024-03-25T20:19:24;5.78;;;2.50;;
31095;SDS011;17749;51.962;8.560;2024-03-25T20:21:53;7.22;;;2.17;;
31095;SDS011;17749;51.962;8.560;2024-03-25T20:24:19;7.15;;;2.38;;
31095;SDS011;17749;51.962;8.560;2024-03-25T20:26:45;9.45;;;2.90;;
31095;SDS011;17749;51.962;8.560;2024-03-25T20:29:11;14.05;;;2.97;;
31095;SDS011;17749;51.962;8.560;2024-03-25T20:31:38;5.45;;;2.40;;
31095;SDS011;17749;51.962;8.560;2024-03-25T20:34:04;8.10;;;2.72;;
31095;SDS011;17749;51.962;8.560;2024-03-25T20:36:31;7.25;;;3.53;;
31095;SDS011;17749;51.962;8.560;2024-03-25T20:38:57;10.95;;;4.65;;
31095;SDS011;17749;51.962;8.560;2024-03-25T20:41:23;15.40;;;7.22;;
31095;SDS011;17749;51.962;8.560;2024-03-25T20:43:49;20.58;;;5.53;;
31095;SDS011;17749;51.962;8.560;2024-03-25T20:46:19;17.58;;;6.35;;
31095;SDS011;17749;51.962;8.560;2024-03-25T20:48:55;12.27;;;3.92;;
31095;SDS011;17749;51.962;8.560;2024-03-25T20:51:21;10.15;;;3.00;;
31095;SDS011;17749;51.962;8.560;2024-03-25T20:53:47;10.82;;;3.10;;
31095;SDS011;17749;51.962;8.560;2024-03-25T20:56:13;6.38;;;2.78;;
31095;SDS011;17749;51.962;8.560;2024-03-25T20:58:39;12.13;;;3.00;;
31095;SDS011;17749;51.962;8.560;2024-03-25T21:01:05;5.65;;;2.58;;
31095;SDS011;17749;51.962;8.560;2024-03-25T21:03:31;9.93;;;2.45;;
31095;SDS011;17749;51.962;8.560;2024-03-25T21:05:58;4.50;;;1.90;;
31095;SDS011;17749;51.962;8.560;2024-03-25T21:08:25;6.82;;;1.83;;
31095;SDS011;17749;51.962;8.560;2024-03-25T21:10:51;7.45;;;1.60;;
31095;SDS011;17749;51.962;8.560;2024-03-25T21:13:17;6.40;;;1.83;;
31095;SDS011;17749;51.962;8.560;2024-03-25T21:15:43;4.20;;;1.60;;
31095;SDS011;17749;51.962;8.560;2024-03-25T21:18:09;3.90;;;1.80;;